sensor_id;sensor_type;location;lat;lon;timestamp;P1;durP1;ratioP1;P2;durP2;ratioP2
72437;SDS011;60444;43.534;-5.674;2022-11-15T00:01:30;9.03;;;2.90;;
72437;SDS011;60444;43.534;-5.674;2022-11-15T00:03:56;7.70;;;2.77;;
72437;SDS011;60444;43.534;-5.674;2022-11-15T00:06:21;7.63;;;2.60;;
72437;SDS011;60444;43.534;-5.674;2022-11-15T00:08:47;8.63;;;2.63;;
72437;SDS011;60444;43.534;-5.674;2022-11-15T00:11:13;8.17;;;3.10;;
72437;SDS011;60444;43.534;-5.674;2022-11-15T00:13:39;9.87;;;3.27;;
72437;SDS011;60444;43.534;-5.674;2022-11-15T00:16:05;9.20;;;2.38;;
72437;SDS011;60444;43.534;-5.674;2022-11-15T00:18:30;7.93;;;2.70;;
72437;SDS011;60444;43.534;-5.674;2022-11-15T00:21:02;8.57;;;3.00;;
72437;SDS011;60444;43.534;-5.674;2022-11-15T00:23:29;8.02;;;2.80;;
72437;SDS011;60444;43.534;-5.674;2022-11-15T00:25:55;7.63;;;2.90;;
72437;SDS011;60444;43.534;-5.674;2022-11-15T00:28:22;8.05;;;3.17;;
72437;SDS011;60444;43.534;-5.674;2022-11-15T00:30:48;7.78;;;2.85;;
72437;SDS011;60444;43.534;-5.674;2022-11-15T00:33:13;8.20;;;2.60;;
72437;SDS011;60444;43.534;-5.674;2022-11-15T00:35:39;7.00;;;3.10;;
72437;SDS011;60444;43.534;-5.674;2022-11-15T00:38:04;6.70;;;2.40;;
72437;SDS011;60444;43.534;-5.674;2022-11-15T00:40:30;8.38;;;2.72;;
72437;SDS011;60444;43.534;-5.674;2022-11-15T00:42:55;7.27;;;2.70;;
72437;SDS011;60444;43.534;-5.674;2022-11-15T00:45:21;7.80;;;3.08;;
72437;SDS011;60444;43.534;-5.674;2022-11-15T00:47:47;7.30;;;2.23;;
72437;SDS011;60444;43.534;-5.674;2022-11-15T00:50:12;7.67;;;2.60;;
72437;SDS011;60444;43.534;-5.674;2022-11-15T00:52:38;7.67;;;2.33;;
72437;SDS011;60444;43.534;-5.674;2022-11-15T00:55:07;8.05;;;2.25;;
72437;SDS011;60444;43.534;-5.674;2022-11-15T00:57:42;6.63;;;2.35;;
72437;SDS011;60444;43.534;-5.674;2022-11-15T01:00:09;6.27;;;1.90;;
72437;SDS011;60444;43.534;-5.674;2022-11-15T01:02:35;7.65;;;2.17;;
72437;SDS011;60444;43.534;-5.674;2022-11-15T01:05:00;6.83;;;2.40;;
72437;SDS011;60444;43.534;-5.674;2022-11-15T01:07:28;6.10;;;1.97;;
72437;SDS011;60444;43.534;-5.674;2022-11-15T01:09:53;7.28;;;2.33;;
72437;SDS011;60444;43.534;-5.674;2022-11-15T01:12:19;6.03;;;1.80;;
72437;SDS011;60444;43.534;-5.674;2022-11-15T01:14:44;6.37;;;2.20;;
72437;SDS011;60444;43.534;-5.674;2022-11-15T01:17:10;5.82;;;2.28;;
72437;SDS011;60444;43.534;-5.674;2022-11-15T01:19:35;6.50;;;1.73;;
72437;SDS011;60444;43.534;-5.674;2022-11-15T01:22:01;6.93;;;2.20;;
72437;SDS011;60444;43.534;-5.674;2022-11-15T01:24:26;6.53;;;1.97;;
72437;SDS011;60444;43.534;-5.674;2022-11-15T01:26:51;7.78;;;1.90;;
72437;SDS011;60444;43.534;-5.674;2022-11-15T01:29:17;7.20;;;2.30;;
72437;SDS011;60444;43.534;-5.674;2022-11-15T01:31:42;6.63;;;1.63;;
72437;SDS011;60444;43.534;-5.674;2022-11-15T01:34:08;5.83;;;2.03;;
72437;SDS011;60444;43.534;-5.674;2022-11-15T01:36:33;6.23;;;2.20;;
72437;SDS011;60444;43.534;-5.674;2022-11-15T01:38:59;6.00;;;1.90;;
72437;SDS011;60444;43.534;-5.674;2022-11-15T01:41:29;7.00;;;2.42;;
72437;SDS011;60444;43.534;-5.674;2022-11-15T01:43:57;6.47;;;2.00;;
72437;SDS011;60444;43.534;-5.674;2022-11-15T01:46:42;8.18;;;2.38;;
72437;SDS011;60444;43.534;-5.674;2022-11-15T01:49:14;5.32;;;2.00;;
72437;SDS011;60444;43.534;-5.674;2022-11-15T01:51:42;5.90;;;1.95;;
72437;SDS011;60444;43.534;-5.674;2022-11-15T01:54:10;6.37;;;2.00;;
72437;SDS011;60444;43.534;-5.674;2022-11-15T01:56:45;6.65;;;2.25;;
72437;SDS011;60444;43.534;-5.674;2022-11-15T01:59:17;6.68;;;2.08;;
72437;SDS011;60444;43.534;-5.674;2022-11-15T02:01:44;6.38;;;2.20;;
72437;SDS011;60444;43.534;-5.674;2022-11-15T02:04:16;7.50;;;2.83;;
72437;SDS011;60444;43.534;-5.674;2022-11-15T02:06:44;6.80;;;1.88;;
72437;SDS011;60444;43.534;-5.674;2022-11-15T02:09:13;7.53;;;2.22;;
72437;SDS011;60444;43.534;-5.674;2022-11-15T02:11:39;7.15;;;2.35;;
72437;SDS011;60444;43.534;-5.674;2022-11-15T02:14:06;9.40;;;2.85;;
72437;SDS011;60444;43.534;-5.674;2022-11-15T02:16:35;7.03;;;2.80;;
72437;SDS011;60444;43.534;-5.674;2022-11-15T02:19:20;8.55;;;2.40;;
72437;SDS011;60444;43.534;-5.674;2022-11-15T02:22:04;7.95;;;2.72;;
72437;SDS011;60444;43.534;-5.674;2022-11-15T02:28:10;5.10;;;1.60;;
72437;SDS011;60444;43.534;-5.674;2022-11-15T02:30:53;7.63;;;2.50;;
72437;SDS011;60444;43.534;-5.674;2022-11-15T02:33:35;6.15;;;2.08;;
72437;SDS011;60444;43.534;-5.674;2022-11-15T02:36:21;8.27;;;2.70;;
72437;SDS011;60444;43.534;-5.674;2022-11-15T02:39:08;6.78;;;2.63;;
72437;SDS011;60444;43.534;-5.674;2022-11-15T02:41:53;5.60;;;1.92;;
72437;SDS011;60444;43.534;-5.674;2022-11-15T02:44:37;7.63;;;1.90;;
72437;SDS011;60444;43.534;-5.674;2022-11-15T02:47:07;4.95;;;1.70;;
72437;SDS011;60444;43.534;-5.674;2022-11-15T02:49:43;6.95;;;2.40;;
72437;SDS011;60444;43.534;-5.674;2022-11-15T02:52:19;5.90;;;1.85;;
72437;SDS011;60444;43.534;-5.674;2022-11-15T02:54:55;7.35;;;2.30;;
72437;SDS011;60444;43.534;-5.674;2022-11-15T03:00:09;6.28;;;1.67;;
72437;SDS011;60444;43.534;-5.674;2022-11-15T03:13:29;6.32;;;2.15;;
72437;SDS011;60444;43.534;-5.674;2022-11-15T03:21:55;7.53;;;2.45;;
72437;SDS011;60444;43.534;-5.674;2022-11-15T03:24:24;10.70;;;2.85;;
72437;SDS011;60444;43.534;-5.674;2022-11-15T03:26:53;10.10;;;2.88;;
72437;SDS011;60444;43.534;-5.674;2022-11-15T03:29:26;8.57;;;2.75;;
72437;SDS011;60444;43.534;-5.674;2022-11-15T03:31:58;13.90;;;4.17;;
72437;SDS011;60444;43.534;-5.674;2022-11-15T03:34:34;8.45;;;2.70;;
72437;SDS011;60444;43.534;-5.674;2022-11-15T03:37:04;8.35;;;2.80;;
72437;SDS011;60444;43.534;-5.674;2022-11-15T03:39:30;9.20;;;3.03;;
72437;SDS011;60444;43.534;-5.674;2022-11-15T03:42:04;9.03;;;2.70;;
72437;SDS011;60444;43.534;-5.674;2022-11-15T03:44:46;9.38;;;2.70;;
72437;SDS011;60444;43.534;-5.674;2022-11-15T03:47:22;8.18;;;2.40;;
72437;SDS011;60444;43.534;-5.674;2022-11-15T03:49:52;8.97;;;2.03;;
72437;SDS011;60444;43.534;-5.674;2022-11-15T03:52:23;9.00;;;2.78;;
72437;SDS011;60444;43.534;-5.674;2022-11-15T03:54:54;8.23;;;2.70;;
72437;SDS011;60444;43.534;-5.674;2022-11-15T03:57:21;7.75;;;2.75;;
72437;SDS011;60444;43.534;-5.674;2022-11-15T03:59:46;7.33;;;2.57;;
72437;SDS011;60444;43.534;-5.674;2022-11-15T04:02:12;8.77;;;2.45;;
72437;SDS011;60444;43.534;-5.674;2022-11-15T04:04:38;9.95;;;2.92;;
72437;SDS011;60444;43.534;-5.674;2022-11-15T04:07:04;7.77;;;2.33;;
72437;SDS011;60444;43.534;-5.674;2022-11-15T04:09:30;9.88;;;3.28;;
72437;SDS011;60444;43.534;-5.674;2022-11-15T04:11:55;9.83;;;3.50;;
72437;SDS011;60444;43.534;-5.674;2022-11-15T04:14:20;10.10;;;3.07;;
72437;SDS011;60444;43.534;-5.674;2022-11-15T04:16:46;9.15;;;3.38;;
72437;SDS011;60444;43.534;-5.674;2022-11-15T04:19:11;9.77;;;3.10;;
72437;SDS011;60444;43.534;-5.674;2022-11-15T04:21:55;10.10;;;3.53;;
72437;SDS011;60444;43.534;-5.674;2022-11-15T04:24:39;8.00;;;2.87;;
72437;SDS011;60444;43.534;-5.674;2022-11-15T04:27:05;8.98;;;2.47;;
72437;SDS011;60444;43.534;-5.674;2022-11-15T04:29:30;10.70;;;4.10;;
72437;SDS011;60444;43.534;-5.674;2022-11-15T04:32:05;11.63;;;3.10;;
72437;SDS011;60444;43.534;-5.674;2022-11-15T04:34:32;9.50;;;3.60;;
72437;SDS011;60444;43.534;-5.674;2022-11-15T04:37:00;6.53;;;2.40;;
72437;SDS011;60444;43.534;-5.674;2022-11-15T04:39:38;8.32;;;2.55;;
72437;SDS011;60444;43.534;-5.674;2022-11-15T04:42:07;10.52;;;3.70;;
72437;SDS011;60444;43.534;-5.674;2022-11-15T04:44:34;9.90;;;3.10;;
72437;SDS011;60444;43.534;-5.674;2022-11-15T04:47:00;9.43;;;3.25;;
72437;SDS011;60444;43.534;-5.674;2022-11-15T04:49:25;9.03;;;2.97;;
72437;SDS011;60444;43.534;-5.674;2022-11-15T04:51:51;10.18;;;3.88;;
72437;SDS011;60444;43.534;-5.674;2022-11-15T04:54:16;8.40;;;2.90;;
72437;SDS011;60444;43.534;-5.674;2022-11-15T04:56:42;9.87;;;2.77;;
72437;SDS011;60444;43.534;-5.674;2022-11-15T04:59:08;7.07;;;1.85;;
72437;SDS011;60444;43.534;-5.674;2022-11-15T05:01:33;5.80;;;1.50;;
72437;SDS011;60444;43.534;-5.674;2022-11-15T05:03:59;9.87;;;2.50;;
72437;SDS011;60444;43.534;-5.674;2022-11-15T05:06:42;14.63;;;4.10;;
72437;SDS011;60444;43.534;-5.674;2022-11-15T05:09:08;10.23;;;3.53;;
72437;SDS011;60444;43.534;-5.674;2022-11-15T05:11:33;8.27;;;2.60;;
72437;SDS011;60444;43.534;-5.674;2022-11-15T05:13:59;8.67;;;3.10;;
72437;SDS011;60444;43.534;-5.674;2022-11-15T05:16:24;10.20;;;2.80;;
72437;SDS011;60444;43.534;-5.674;2022-11-15T05:18:51;8.30;;;2.60;;
72437;SDS011;60444;43.534;-5.674;2022-11-15T05:21:17;6.63;;;2.10;;
72437;SDS011;60444;43.534;-5.674;2022-11-15T05:23:42;6.87;;;2.43;;
72437;SDS011;60444;43.534;-5.674;2022-11-15T05:26:08;7.23;;;2.17;;
72437;SDS011;60444;43.534;-5.674;2022-11-15T05:28:35;9.32;;;2.50;;
72437;SDS011;60444;43.534;-5.674;2022-11-15T05:31:02;8.13;;;2.78;;
72437;SDS011;60444;43.534;-5.674;2022-11-15T05:33:31;7.07;;;2.03;;
72437;SDS011;60444;43.534;-5.674;2022-11-15T05:36:00;8.50;;;2.45;;
72437;SDS011;60444;43.534;-5.674;2022-11-15T05:38:30;8.30;;;2.03;;
72437;SDS011;60444;43.534;-5.674;2022-11-15T05:40:56;6.82;;;2.10;;
72437;SDS011;60444;43.534;-5.674;2022-11-15T05:43:22;11.57;;;2.47;;
72437;SDS011;60444;43.534;-5.674;2022-11-15T05:45:49;8.00;;;2.28;;
72437;SDS011;60444;43.534;-5.674;2022-11-15T05:48:14;9.47;;;2.70;;
72437;SDS011;60444;43.534;-5.674;2022-11-15T05:50:41;7.83;;;2.50;;
72437;SDS011;60444;43.534;-5.674;2022-11-15T05:53:10;7.28;;;1.95;;
72437;SDS011;60444;43.534;-5.674;2022-11-15T05:55:38;6.53;;;2.00;;
72437;SDS011;60444;43.534;-5.674;2022-11-15T05:58:04;8.15;;;2.17;;
72437;SDS011;60444;43.534;-5.674;2022-11-15T06:00:30;6.70;;;1.90;;
72437;SDS011;60444;43.534;-5.674;2022-11-15T06:02:56;7.80;;;2.63;;
72437;SDS011;60444;43.534;-5.674;2022-11-15T06:05:21;7.53;;;1.90;;
72437;SDS011;60444;43.534;-5.674;2022-11-15T06:07:47;8.90;;;1.97;;
72437;SDS011;60444;43.534;-5.674;2022-11-15T06:10:12;9.27;;;2.20;;
72437;SDS011;60444;43.534;-5.674;2022-11-15T06:12:38;8.13;;;2.10;;
72437;SDS011;60444;43.534;-5.674;2022-11-15T06:15:03;11.63;;;4.20;;
72437;SDS011;60444;43.534;-5.674;2022-11-15T06:17:29;14.20;;;4.20;;
72437;SDS011;60444;43.534;-5.674;2022-11-15T06:19:54;9.57;;;2.43;;
72437;SDS011;60444;43.534;-5.674;2022-11-15T06:22:20;7.50;;;2.63;;
72437;SDS011;60444;43.534;-5.674;2022-11-15T06:24:45;12.67;;;2.40;;
72437;SDS011;60444;43.534;-5.674;2022-11-15T06:27:11;10.30;;;2.38;;
72437;SDS011;60444;43.534;-5.674;2022-11-15T06:29:37;10.68;;;2.90;;
72437;SDS011;60444;43.534;-5.674;2022-11-15T06:32:02;7.30;;;2.60;;
72437;SDS011;60444;43.534;-5.674;2022-11-15T06:34:28;9.20;;;2.70;;
72437;SDS011;60444;43.534;-5.674;2022-11-15T06:36:54;8.52;;;2.35;;
72437;SDS011;60444;43.534;-5.674;2022-11-15T06:39:19;10.93;;;2.70;;
72437;SDS011;60444;43.534;-5.674;2022-11-15T06:41:45;12.43;;;3.25;;
72437;SDS011;60444;43.534;-5.674;2022-11-15T06:44:11;12.67;;;5.27;;
72437;SDS011;60444;43.534;-5.674;2022-11-15T06:46:36;23.73;;;9.50;;
72437;SDS011;60444;43.534;-5.674;2022-11-15T06:49:02;9.82;;;3.80;;
72437;SDS011;60444;43.534;-5.674;2022-11-15T06:51:27;10.50;;;2.70;;
72437;SDS011;60444;43.534;-5.674;2022-11-15T06:53:53;12.30;;;2.73;;
72437;SDS011;60444;43.534;-5.674;2022-11-15T06:56:19;11.38;;;2.88;;
72437;SDS011;60444;43.534;-5.674;2022-11-15T06:58:44;15.23;;;2.33;;
72437;SDS011;60444;43.534;-5.674;2022-11-15T07:01:10;8.52;;;2.95;;
72437;SDS011;60444;43.534;-5.674;2022-11-15T07:03:40;7.73;;;2.93;;
72437;SDS011;60444;43.534;-5.674;2022-11-15T07:06:07;9.07;;;2.55;;
72437;SDS011;60444;43.534;-5.674;2022-11-15T07:08:34;9.02;;;2.70;;
72437;SDS011;60444;43.534;-5.674;2022-11-15T07:11:04;9.00;;;2.15;;
72437;SDS011;60444;43.534;-5.674;2022-11-15T07:13:31;10.40;;;2.50;;
72437;SDS011;60444;43.534;-5.674;2022-11-15T07:15:58;7.43;;;1.77;;
72437;SDS011;60444;43.534;-5.674;2022-11-15T07:18:28;8.15;;;2.10;;
72437;SDS011;60444;43.534;-5.674;2022-11-15T07:20:53;6.47;;;1.88;;
72437;SDS011;60444;43.534;-5.674;2022-11-15T07:23:18;4.93;;;1.13;;
72437;SDS011;60444;43.534;-5.674;2022-11-15T07:25:44;7.00;;;1.60;;
72437;SDS011;60444;43.534;-5.674;2022-11-15T07:28:09;8.70;;;1.80;;
72437;SDS011;60444;43.534;-5.674;2022-11-15T07:30:35;9.13;;;1.33;;
72437;SDS011;60444;43.534;-5.674;2022-11-15T07:33:01;8.17;;;2.03;;
72437;SDS011;60444;43.534;-5.674;2022-11-15T07:35:27;11.15;;;1.95;;
72437;SDS011;60444;43.534;-5.674;2022-11-15T07:37:56;11.18;;;1.70;;
72437;SDS011;60444;43.534;-5.674;2022-11-15T07:40:23;11.20;;;1.88;;
72437;SDS011;60444;43.534;-5.674;2022-11-15T07:42:50;9.90;;;2.10;;
72437;SDS011;60444;43.534;-5.674;2022-11-15T07:45:22;11.18;;;1.50;;
72437;SDS011;60444;43.534;-5.674;2022-11-15T07:47:50;9.93;;;1.63;;
72437;SDS011;60444;43.534;-5.674;2022-11-15T07:50:16;9.10;;;1.00;;
72437;SDS011;60444;43.534;-5.674;2022-11-15T07:52:42;12.63;;;1.40;;
72437;SDS011;60444;43.534;-5.674;2022-11-15T07:55:08;10.00;;;1.65;;
72437;SDS011;60444;43.534;-5.674;2022-11-15T07:57:34;11.77;;;1.98;;
72437;SDS011;60444;43.534;-5.674;2022-11-15T08:00:00;14.53;;;1.50;;
72437;SDS011;60444;43.534;-5.674;2022-11-15T08:02:26;10.57;;;1.48;;
72437;SDS011;60444;43.534;-5.674;2022-11-15T08:04:51;11.37;;;1.50;;
72437;SDS011;60444;43.534;-5.674;2022-11-15T08:07:17;9.35;;;1.90;;
72437;SDS011;60444;43.534;-5.674;2022-11-15T08:09:42;10.37;;;1.37;;
72437;SDS011;60444;43.534;-5.674;2022-11-15T08:12:08;12.70;;;1.53;;
72437;SDS011;60444;43.534;-5.674;2022-11-15T08:14:34;8.77;;;1.30;;
72437;SDS011;60444;43.534;-5.674;2022-11-15T08:17:00;15.80;;;1.60;;
72437;SDS011;60444;43.534;-5.674;2022-11-15T08:19:25;13.75;;;2.40;;
72437;SDS011;60444;43.534;-5.674;2022-11-15T08:21:51;11.10;;;1.27;;
72437;SDS011;60444;43.534;-5.674;2022-11-15T08:24:17;6.73;;;1.37;;
72437;SDS011;60444;43.534;-5.674;2022-11-15T08:26:42;10.52;;;1.58;;
72437;SDS011;60444;43.534;-5.674;2022-11-15T08:29:08;12.50;;;1.80;;
72437;SDS011;60444;43.534;-5.674;2022-11-15T08:31:33;12.63;;;2.50;;
72437;SDS011;60444;43.534;-5.674;2022-11-15T08:34:01;16.63;;;2.00;;
72437;SDS011;60444;43.534;-5.674;2022-11-15T08:36:27;10.25;;;1.25;;
72437;SDS011;60444;43.534;-5.674;2022-11-15T08:38:53;11.98;;;1.60;;
72437;SDS011;60444;43.534;-5.674;2022-11-15T08:41:26;12.40;;;1.57;;
72437;SDS011;60444;43.534;-5.674;2022-11-15T08:43:55;10.32;;;1.45;;
72437;SDS011;60444;43.534;-5.674;2022-11-15T08:46:20;17.23;;;2.13;;
72437;SDS011;60444;43.534;-5.674;2022-11-15T08:48:46;12.30;;;2.10;;
72437;SDS011;60444;43.534;-5.674;2022-11-15T08:51:12;11.77;;;1.60;;
72437;SDS011;60444;43.534;-5.674;2022-11-15T08:53:37;10.00;;;1.60;;
72437;SDS011;60444;43.534;-5.674;2022-11-15T08:56:03;10.52;;;1.40;;
72437;SDS011;60444;43.534;-5.674;2022-11-15T08:58:33;11.32;;;1.60;;
72437;SDS011;60444;43.534;-5.674;2022-11-15T09:00:58;12.53;;;1.47;;
72437;SDS011;60444;43.534;-5.674;2022-11-15T09:03:24;12.73;;;1.57;;
72437;SDS011;60444;43.534;-5.674;2022-11-15T09:05:53;12.75;;;2.08;;
72437;SDS011;60444;43.534;-5.674;2022-11-15T09:08:19;8.80;;;1.40;;
72437;SDS011;60444;43.534;-5.674;2022-11-15T09:10:45;13.27;;;1.55;;
72437;SDS011;60444;43.534;-5.674;2022-11-15T09:13:11;9.33;;;1.30;;
72437;SDS011;60444;43.534;-5.674;2022-11-15T09:15:37;9.07;;;1.60;;
72437;SDS011;60444;43.534;-5.674;2022-11-15T09:18:02;12.63;;;1.70;;
72437;SDS011;60444;43.534;-5.674;2022-11-15T09:20:28;9.13;;;1.13;;
72437;SDS011;60444;43.534;-5.674;2022-11-15T09:22:53;7.57;;;1.20;;
72437;SDS011;60444;43.534;-5.674;2022-11-15T09:25:19;12.50;;;1.80;;
72437;SDS011;60444;43.534;-5.674;2022-11-15T09:27:44;11.25;;;1.80;;
72437;SDS011;60444;43.534;-5.674;2022-11-15T09:30:10;11.47;;;1.50;;
72437;SDS011;60444;43.534;-5.674;2022-11-15T09:32:35;14.97;;;2.23;;
72437;SDS011;60444;43.534;-5.674;2022-11-15T09:35:01;9.35;;;1.35;;
72437;SDS011;60444;43.534;-5.674;2022-11-15T09:37:27;7.93;;;1.10;;
72437;SDS011;60444;43.534;-5.674;2022-11-15T09:39:53;8.20;;;1.30;;
72437;SDS011;60444;43.534;-5.674;2022-11-15T09:48:08;7.20;;;1.33;;
72437;SDS011;60444;43.534;-5.674;2022-11-15T09:50:54;9.40;;;1.40;;
72437;SDS011;60444;43.534;-5.674;2022-11-15T09:53:34;6.78;;;1.10;;
72437;SDS011;60444;43.534;-5.674;2022-11-15T09:56:21;8.65;;;1.85;;
72437;SDS011;60444;43.534;-5.674;2022-11-15T10:01:32;10.10;;;1.95;;
72437;SDS011;60444;43.534;-5.674;2022-11-15T10:03:59;8.80;;;1.20;;
72437;SDS011;60444;43.534;-5.674;2022-11-15T10:06:25;8.00;;;1.20;;
72437;SDS011;60444;43.534;-5.674;2022-11-15T10:11:29;7.93;;;1.47;;
72437;SDS011;60444;43.534;-5.674;2022-11-15T10:13:59;11.80;;;1.27;;
72437;SDS011;60444;43.534;-5.674;2022-11-15T10:16:56;9.05;;;1.83;;
72437;SDS011;60444;43.534;-5.674;2022-11-15T10:22:20;11.50;;;2.50;;
72437;SDS011;60444;43.534;-5.674;2022-11-15T10:24:47;10.67;;;2.47;;
72437;SDS011;60444;43.534;-5.674;2022-11-15T10:27:14;8.32;;;1.15;;
72437;SDS011;60444;43.534;-5.674;2022-11-15T10:29:47;14.00;;;3.92;;
72437;SDS011;60444;43.534;-5.674;2022-11-15T10:32:16;10.57;;;1.95;;
72437;SDS011;60444;43.534;-5.674;2022-11-15T10:34:43;9.80;;;3.60;;
72437;SDS011;60444;43.534;-5.674;2022-11-15T10:37:10;7.57;;;1.80;;
72437;SDS011;60444;43.534;-5.674;2022-11-15T10:39:35;12.85;;;2.78;;
72437;SDS011;60444;43.534;-5.674;2022-11-15T10:42:17;9.87;;;2.10;;
72437;SDS011;60444;43.534;-5.674;2022-11-15T10:44:50;8.70;;;2.45;;
72437;SDS011;60444;43.534;-5.674;2022-11-15T10:47:31;8.60;;;1.90;;
72437;SDS011;60444;43.534;-5.674;2022-11-15T10:52:49;14.15;;;3.33;;
72437;SDS011;60444;43.534;-5.674;2022-11-15T10:57:47;7.55;;;1.77;;
72437;SDS011;60444;43.534;-5.674;2022-11-15T11:05:37;11.93;;;2.78;;
72437;SDS011;60444;43.534;-5.674;2022-11-15T11:10:32;8.35;;;2.22;;
72437;SDS011;60444;43.534;-5.674;2022-11-15T11:13:15;7.63;;;2.20;;
72437;SDS011;60444;43.534;-5.674;2022-11-15T11:15:50;7.80;;;2.10;;
72437;SDS011;60444;43.534;-5.674;2022-11-15T11:18:28;8.70;;;2.85;;
72437;SDS011;60444;43.534;-5.674;2022-11-15T11:21:05;9.50;;;2.28;;
72437;SDS011;60444;43.534;-5.674;2022-11-15T11:23:53;9.82;;;2.40;;
72437;SDS011;60444;43.534;-5.674;2022-11-15T11:32:17;9.07;;;1.98;;
72437;SDS011;60444;43.534;-5.674;2022-11-15T11:35:02;8.80;;;1.85;;
72437;SDS011;60444;43.534;-5.674;2022-11-15T11:37:37;6.18;;;1.13;;
72437;SDS011;60444;43.534;-5.674;2022-11-15T11:43:08;7.25;;;1.75;;
72437;SDS011;60444;43.534;-5.674;2022-11-15T11:48:57;9.52;;;2.72;;
72437;SDS011;60444;43.534;-5.674;2022-11-15T11:51:28;11.98;;;2.38;;
72437;SDS011;60444;43.534;-5.674;2022-11-15T11:56:43;16.17;;;3.58;;
72437;SDS011;60444;43.534;-5.674;2022-11-15T11:59:58;11.45;;;2.90;;
72437;SDS011;60444;43.534;-5.674;2022-11-15T12:02:47;10.95;;;2.60;;
72437;SDS011;60444;43.534;-5.674;2022-11-15T12:05:22;10.77;;;2.30;;
72437;SDS011;60444;43.534;-5.674;2022-11-15T12:07:52;13.97;;;3.47;;
72437;SDS011;60444;43.534;-5.674;2022-11-15T12:10:25;12.65;;;2.78;;
72437;SDS011;60444;43.534;-5.674;2022-11-15T12:13:00;12.25;;;3.75;;
72437;SDS011;60444;43.534;-5.674;2022-11-15T12:15:31;15.30;;;3.47;;
72437;SDS011;60444;43.534;-5.674;2022-11-15T12:18:01;10.85;;;2.90;;
72437;SDS011;60444;43.534;-5.674;2022-11-15T12:20:28;10.53;;;1.73;;
72437;SDS011;60444;43.534;-5.674;2022-11-15T12:25:25;8.07;;;2.33;;
72437;SDS011;60444;43.534;-5.674;2022-11-15T12:30:36;9.55;;;1.95;;
72437;SDS011;60444;43.534;-5.674;2022-11-15T12:36:01;8.65;;;2.00;;
72437;SDS011;60444;43.534;-5.674;2022-11-15T12:41:34;7.97;;;1.42;;
72437;SDS011;60444;43.534;-5.674;2022-11-15T12:44:02;9.93;;;2.35;;
72437;SDS011;60444;43.534;-5.674;2022-11-15T12:48:55;6.88;;;1.10;;
72437;SDS011;60444;43.534;-5.674;2022-11-15T12:57:30;7.38;;;2.30;;
72437;SDS011;60444;43.534;-5.674;2022-11-15T13:04:47;10.47;;;1.97;;
72437;SDS011;60444;43.534;-5.674;2022-11-15T13:17:38;8.20;;;1.40;;
72437;SDS011;60444;43.534;-5.674;2022-11-15T13:28:22;6.05;;;1.10;;
72437;SDS011;60444;43.534;-5.674;2022-11-15T13:30:52;7.47;;;1.50;;
72437;SDS011;60444;43.534;-5.674;2022-11-15T13:35:51;9.07;;;1.90;;
72437;SDS011;60444;43.534;-5.674;2022-11-15T13:38:32;7.20;;;1.50;;
72437;SDS011;60444;43.534;-5.674;2022-11-15T13:41:09;10.23;;;2.47;;
72437;SDS011;60444;43.534;-5.674;2022-11-15T13:43:39;9.55;;;1.60;;
72437;SDS011;60444;43.534;-5.674;2022-11-15T13:48:44;11.00;;;1.23;;
72437;SDS011;60444;43.534;-5.674;2022-11-15T13:53:46;9.15;;;2.00;;
72437;SDS011;60444;43.534;-5.674;2022-11-15T13:56:33;8.87;;;1.80;;
72437;SDS011;60444;43.534;-5.674;2022-11-15T13:59:00;6.40;;;1.45;;
72437;SDS011;60444;43.534;-5.674;2022-11-15T14:01:33;6.40;;;1.20;;
72437;SDS011;60444;43.534;-5.674;2022-11-15T14:03:59;8.63;;;1.47;;
72437;SDS011;60444;43.534;-5.674;2022-11-15T14:06:27;8.00;;;1.00;;
72437;SDS011;60444;43.534;-5.674;2022-11-15T14:11:25;5.30;;;1.10;;
72437;SDS011;60444;43.534;-5.674;2022-11-15T14:16:33;6.57;;;1.07;;
72437;SDS011;60444;43.534;-5.674;2022-11-15T14:19:01;6.07;;;1.48;;
72437;SDS011;60444;43.534;-5.674;2022-11-15T14:21:27;5.50;;;1.35;;
72437;SDS011;60444;43.534;-5.674;2022-11-15T14:23:53;8.00;;;1.10;;
72437;SDS011;60444;43.534;-5.674;2022-11-15T14:26:39;5.97;;;1.17;;
72437;SDS011;60444;43.534;-5.674;2022-11-15T14:29:24;6.97;;;1.30;;
72437;SDS011;60444;43.534;-5.674;2022-11-15T14:31:51;7.97;;;1.13;;
72437;SDS011;60444;43.534;-5.674;2022-11-15T14:34:37;7.83;;;1.50;;
72437;SDS011;60444;43.534;-5.674;2022-11-15T14:37:03;8.55;;;1.10;;
72437;SDS011;60444;43.534;-5.674;2022-11-15T14:39:28;8.37;;;1.50;;
72437;SDS011;60444;43.534;-5.674;2022-11-15T14:41:54;10.57;;;1.63;;
72437;SDS011;60444;43.534;-5.674;2022-11-15T14:44:19;5.80;;;1.20;;
72437;SDS011;60444;43.534;-5.674;2022-11-15T14:46:46;6.43;;;1.10;;
72437;SDS011;60444;43.534;-5.674;2022-11-15T14:49:13;5.33;;;0.97;;
72437;SDS011;60444;43.534;-5.674;2022-11-15T14:51:40;6.53;;;1.40;;
72437;SDS011;60444;43.534;-5.674;2022-11-15T14:54:09;6.82;;;1.13;;
72437;SDS011;60444;43.534;-5.674;2022-11-15T14:56:35;5.70;;;0.88;;
72437;SDS011;60444;43.534;-5.674;2022-11-15T14:59:01;4.47;;;0.93;;
72437;SDS011;60444;43.534;-5.674;2022-11-15T15:01:26;5.83;;;1.13;;
72437;SDS011;60444;43.534;-5.674;2022-11-15T15:03:52;7.20;;;1.07;;
72437;SDS011;60444;43.534;-5.674;2022-11-15T15:06:21;6.13;;;1.02;;
72437;SDS011;60444;43.534;-5.674;2022-11-15T15:08:47;6.67;;;1.13;;
72437;SDS011;60444;43.534;-5.674;2022-11-15T15:11:25;7.32;;;1.15;;
72437;SDS011;60444;43.534;-5.674;2022-11-15T15:13:52;8.07;;;1.45;;
72437;SDS011;60444;43.534;-5.674;2022-11-15T15:16:21;5.75;;;1.00;;
72437;SDS011;60444;43.534;-5.674;2022-11-15T15:18:46;4.97;;;1.03;;
72437;SDS011;60444;43.534;-5.674;2022-11-15T15:21:28;7.30;;;1.15;;
72437;SDS011;60444;43.534;-5.674;2022-11-15T15:23:56;6.97;;;1.13;;
72437;SDS011;60444;43.534;-5.674;2022-11-15T15:26:22;8.27;;;1.60;;
72437;SDS011;60444;43.534;-5.674;2022-11-15T15:28:48;6.20;;;1.02;;
72437;SDS011;60444;43.534;-5.674;2022-11-15T15:31:16;8.45;;;1.10;;
72437;SDS011;60444;43.534;-5.674;2022-11-15T15:33:41;8.20;;;2.90;;
72437;SDS011;60444;43.534;-5.674;2022-11-15T15:36:11;7.03;;;1.23;;
72437;SDS011;60444;43.534;-5.674;2022-11-15T15:38:37;18.95;;;1.80;;
72437;SDS011;60444;43.534;-5.674;2022-11-15T15:41:07;10.33;;;1.70;;
72437;SDS011;60444;43.534;-5.674;2022-11-15T15:43:34;8.90;;;1.50;;
72437;SDS011;60444;43.534;-5.674;2022-11-15T15:46:00;14.00;;;1.70;;
72437;SDS011;60444;43.534;-5.674;2022-11-15T15:48:25;9.07;;;1.50;;
72437;SDS011;60444;43.534;-5.674;2022-11-15T15:50:51;10.50;;;1.30;;
72437;SDS011;60444;43.534;-5.674;2022-11-15T15:53:16;6.40;;;1.50;;
72437;SDS011;60444;43.534;-5.674;2022-11-15T15:55:42;8.80;;;1.23;;
72437;SDS011;60444;43.534;-5.674;2022-11-15T15:58:08;6.63;;;1.13;;
72437;SDS011;60444;43.534;-5.674;2022-11-15T16:00:33;6.22;;;1.13;;
72437;SDS011;60444;43.534;-5.674;2022-11-15T16:02:59;10.90;;;1.60;;
72437;SDS011;60444;43.534;-5.674;2022-11-15T16:05:24;8.75;;;1.42;;
72437;SDS011;60444;43.534;-5.674;2022-11-15T16:07:50;9.00;;;1.47;;
72437;SDS011;60444;43.534;-5.674;2022-11-15T16:12:41;10.35;;;1.30;;
72437;SDS011;60444;43.534;-5.674;2022-11-15T16:15:07;8.77;;;1.73;;
72437;SDS011;60444;43.534;-5.674;2022-11-15T16:17:34;10.43;;;1.75;;
72437;SDS011;60444;43.534;-5.674;2022-11-15T16:20:03;6.70;;;1.20;;
72437;SDS011;60444;43.534;-5.674;2022-11-15T16:22:29;7.53;;;1.10;;
72437;SDS011;60444;43.534;-5.674;2022-11-15T16:24:55;8.93;;;1.13;;
72437;SDS011;60444;43.534;-5.674;2022-11-15T16:27:21;5.72;;;1.02;;
72437;SDS011;60444;43.534;-5.674;2022-11-15T16:29:47;10.57;;;1.23;;
72437;SDS011;60444;43.534;-5.674;2022-11-15T16:32:14;8.10;;;1.23;;
72437;SDS011;60444;43.534;-5.674;2022-11-15T16:34:40;9.90;;;1.67;;
72437;SDS011;60444;43.534;-5.674;2022-11-15T16:37:09;6.13;;;1.50;;
72437;SDS011;60444;43.534;-5.674;2022-11-15T16:39:46;8.32;;;1.10;;
72437;SDS011;60444;43.534;-5.674;2022-11-15T16:42:11;7.53;;;1.20;;
72437;SDS011;60444;43.534;-5.674;2022-11-15T16:44:38;7.28;;;1.02;;